Share

Hyden, KY (41749)

KKYJACKS3 Elev 1198 ft | 37.41 °N, 83.42 °W | Change Station
Active Advisory: Freeze Warning Active Notice: Record Report

Current weather conditions updated 8 seconds ago

Clear
Clear
33.2 °F
Feels Like 33 °F
N
0.0
Wind Variable Wind from North
Gusts 0.0 mph
Sunrise 6:56 AM
Sunset 8:10 PM
Moon Waning Gibbous

Today is forecast to be Much Warmer than yesterday.

Pressure 30.30 in
Visibility 10.0 miles
Clouds Clear
Windchill 33 °F
Dew Point 28 °F
Humidity 80%
Rainfall 0.00 in
Snow Depth Not available.
UV 0 out of 16
Pollen 8.70 out of 12
Air Quality Not available.
Flu Activity Sporadic
METAR KI35 170555Z AUTO 09004KT 10SM CLR 08/M07 A3030 RMK AO1

More Conditions Fewer Conditions

Pressure 30.30 in
Visibility 10.0 miles
Clouds Clear
Windchill 33 °F
Dew Point 28 °F
Humidity 80%
Rainfall 0.00 in
Snow Depth Not available.
UV 0 out of 16
Pollen 8.70 out of 12
Air Quality Not available.
Flu Activity Sporadic
METAR KI35 170555Z AUTO 09004KT 10SM CLR 08/M07 A3030 RMK AO1

More Conditions Fewer Conditions

10-Day Forecast

Almanac

Astronomy

Apr. 17, 2014 Rise Set
Actual Time 6:56 AM EDT 8:10 PM EDT
Civil Twilight 6:29 AM EDT 8:37 PM EDT
Nautical Twilight 5:57 AM EDT 9:09 PM EDT
Astronomical Twilight 5:23 AM EDT 9:43 PM EDT
Moon 10:52 PM EDT 8:29 AM EDT
Length of Visible Light 14h 07m
Length of Day
13h 13m
Tomorrow will be 2m 14s longer.
Waning Gibbous, 96% of the Moon is Illuminated
Today
Waning Gibbous
Apr 22
Last Quarter
Apr 29
New
May 6
First Quarter
May 14
Full

Today's Extremes

State Highs State Lows

Community

  • Sunset over the Bay
    Sunset over the Bay
  • symphony in blue....
    symphony in blue....
  • Dawn Surprise
    Dawn Surprise
  • Yucca delight
    Yucca delight
  • Sunset inside of the Ocean
    Sunset inside of the Ocean

WunderPhotos

Upload Photos

1,701,872 photos uploaded!

WunderBlogs® & News

Nearby

Snow Depth

Station Depth Elevation
No new snow has been reported.

Coastal Water Temperatures

Place Temperature
No Stations Reporting

Earthquake Activity

City Distance Mag. Time & Date
Englewood, Tennessee 132 miles 2.8 10:34 PM EDT
2014-04-12
Minimum magnitude displayed is 2.5.

Nearby Weather Stations

Station Location Temp. Windchill Dew Point Humidity Wind Precip. Elev Updated Type
RAWS PEABODY KY, Big Creek, KY 41 °F 41 °F 27 °F 56% ESE  at  2 mph 0.00 in / hr 1464 ft 1:01 AM EDT MADIS
Talbert, KY 33.2 °F 33 °F 28 °F 80% North  at  0.0 mph 0.00 in / hr 1198 ft 2:10 AM EDT Normal

Show More Stations Show Fewer Stations

What do you think?

We're not finished. Please let us know what you like, what you don't like, and what you are still missing.